createdAt,value
2023-04-12T00:01:14.789Z,7.80
2023-04-12T00:03:42.164Z,7.90
2023-04-12T00:06:10.548Z,7.90
2023-04-12T00:08:37.693Z,7.80
2023-04-12T00:11:05.191Z,7.90
2023-04-12T00:13:32.554Z,7.90
2023-04-12T00:16:00.098Z,7.90
2023-04-12T00:18:28.263Z,7.90
2023-04-12T00:20:56.369Z,7.90
2023-04-12T00:23:26.577Z,7.80
2023-04-12T00:25:53.826Z,7.80
2023-04-12T00:28:21.104Z,7.70
2023-04-12T00:30:48.702Z,7.70
2023-04-12T00:33:18.236Z,7.70
2023-04-12T00:35:45.625Z,7.70
2023-04-12T00:38:13.247Z,7.80
2023-04-12T00:40:43.887Z,7.90
2023-04-12T00:43:15.731Z,7.90
2023-04-12T00:45:43.164Z,7.90
2023-04-12T00:48:10.958Z,7.90
2023-04-12T00:50:41.869Z,7.90
2023-04-12T00:53:12.003Z,7.90
2023-04-12T00:55:45.725Z,7.90
2023-04-12T00:58:14.689Z,7.90
2023-04-12T01:00:42.753Z,7.90
2023-04-12T01:03:12.077Z,7.90
2023-04-12T01:05:50.526Z,7.70
2023-04-12T01:08:49.418Z,7.70
2023-04-12T01:11:33.001Z,7.80
2023-04-12T01:14:11.679Z,7.70
2023-04-12T01:16:48.121Z,7.70
2023-04-12T01:19:47.839Z,7.70
2023-04-12T01:22:32.852Z,7.60
2023-04-12T01:25:16.458Z,7.60
2023-04-12T01:27:50.066Z,7.60
2023-04-12T01:30:19.984Z,7.50
2023-04-12T01:32:54.140Z,7.50
2023-04-12T01:35:24.633Z,7.40
2023-04-12T01:37:52.847Z,7.40
2023-04-12T01:40:20.569Z,7.20
2023-04-12T01:42:48.096Z,7.10
2023-04-12T01:45:15.855Z,7.00
2023-04-12T01:47:43.290Z,6.90
2023-04-12T01:50:22.697Z,6.90
2023-04-12T01:52:58.187Z,6.70
2023-04-12T01:55:27.923Z,6.50
2023-04-12T01:57:55.285Z,6.40
2023-04-12T02:00:23.335Z,6.40
2023-04-12T02:02:51.833Z,6.40
2023-04-12T02:05:19.580Z,6.40
2023-04-12T02:07:47.834Z,6.30
2023-04-12T02:10:15.621Z,6.30
2023-04-12T02:12:42.915Z,6.40
2023-04-12T02:15:10.592Z,6.30
2023-04-12T02:17:37.917Z,6.10
2023-04-12T02:20:12.167Z,6.10
2023-04-12T02:22:39.344Z,6.10
2023-04-12T02:25:07.444Z,6.10
2023-04-12T02:27:34.716Z,6.00
2023-04-12T02:30:02.049Z,6.00
2023-04-12T02:32:31.184Z,5.90
2023-04-12T02:34:59.293Z,5.90
2023-04-12T02:37:27.614Z,5.90
2023-04-12T02:39:57.136Z,5.80
2023-04-12T02:42:24.393Z,5.80
2023-04-12T02:44:52.446Z,5.70
2023-04-12T02:47:19.891Z,5.70
2023-04-12T02:49:47.214Z,5.60
2023-04-12T02:52:15.087Z,5.60
2023-04-12T02:54:42.294Z,5.60
2023-04-12T02:57:09.600Z,5.50
2023-04-12T02:59:36.949Z,5.50
2023-04-12T03:02:04.492Z,5.40
2023-04-12T03:04:33.293Z,5.30
2023-04-12T03:07:00.770Z,5.20
2023-04-12T03:09:28.359Z,5.00
2023-04-12T03:11:55.627Z,5.00
2023-04-12T03:14:22.940Z,4.90
2023-04-12T03:16:51.816Z,4.80
2023-04-12T03:19:19.386Z,4.80
2023-04-12T03:21:46.978Z,4.70
2023-04-12T03:24:14.477Z,4.80
2023-04-12T03:26:42.389Z,4.70
2023-04-12T03:29:11.335Z,4.60
2023-04-12T03:31:39.215Z,4.60
2023-04-12T03:34:08.443Z,4.60
2023-04-12T03:36:36.547Z,4.60
2023-04-12T03:39:04.127Z,4.60
2023-04-12T03:41:31.504Z,4.60
2023-04-12T03:43:59.070Z,4.60
2023-04-12T03:46:26.576Z,4.50
2023-04-12T03:48:54.382Z,4.40
2023-04-12T03:51:22.468Z,4.20
2023-04-12T03:53:49.926Z,4.10
2023-04-12T03:56:17.379Z,4.10
2023-04-12T03:58:44.770Z,4.20
2023-04-12T04:01:14.032Z,4.20
2023-04-12T04:03:41.669Z,4.10
2023-04-12T04:06:09.477Z,4.10
2023-04-12T04:08:37.764Z,4.10
2023-04-12T04:11:06.653Z,4.10
2023-04-12T04:13:35.186Z,4.10
2023-04-12T04:16:07.218Z,4.00
2023-04-12T04:18:36.209Z,3.90
2023-04-12T04:21:03.794Z,3.90
2023-04-12T04:23:38.714Z,3.90
2023-04-12T04:26:10.361Z,3.90
2023-04-12T04:28:50.469Z,3.90
2023-04-12T04:31:18.011Z,4.00
2023-04-12T04:33:45.355Z,4.00
2023-04-12T04:36:16.010Z,4.00
2023-04-12T04:38:43.259Z,4.00
2023-04-12T04:41:10.573Z,4.00
2023-04-12T04:43:40.184Z,3.90
2023-04-12T04:46:07.578Z,3.90
2023-04-12T04:48:34.939Z,3.90
2023-04-12T04:51:02.883Z,3.90
2023-04-12T04:53:30.242Z,3.90
2023-04-12T04:55:59.578Z,4.20
2023-04-12T04:58:27.781Z,4.30
2023-04-12T05:00:59.858Z,4.30
2023-04-12T05:03:30.598Z,4.40
2023-04-12T05:05:58.400Z,4.40
2023-04-12T05:08:25.853Z,4.40
2023-04-12T05:10:53.738Z,4.60
2023-04-12T05:13:22.403Z,4.90
2023-04-12T05:15:49.960Z,5.00
2023-04-12T05:18:18.287Z,5.30
2023-04-12T05:20:46.257Z,5.50
2023-04-12T05:23:13.557Z,5.90
2023-04-12T05:25:47.109Z,6.90
2023-04-12T05:28:15.845Z,9.00
2023-04-12T05:30:45.105Z,11.80
2023-04-12T05:33:12.609Z,12.90
2023-04-12T05:35:39.840Z,12.00
2023-04-12T05:38:07.215Z,10.80
2023-04-12T05:40:36.598Z,9.30
2023-04-12T05:43:03.948Z,8.40
2023-04-12T05:45:31.889Z,8.50
2023-04-12T05:47:59.282Z,11.10
2023-04-12T05:50:26.698Z,12.00
2023-04-12T05:52:55.814Z,13.00
2023-04-12T05:55:23.041Z,11.70
2023-04-12T05:57:51.631Z,10.40
2023-04-12T06:00:21.530Z,9.80
2023-04-12T06:02:50.622Z,9.30
2023-04-12T06:05:18.397Z,9.10
2023-04-12T06:07:49.195Z,9.00
2023-04-12T06:10:18.043Z,8.90
2023-04-12T06:12:45.796Z,9.00
2023-04-12T06:15:13.145Z,9.20
2023-04-12T06:17:40.698Z,9.30
2023-04-12T06:20:09.841Z,9.50
2023-04-12T06:22:38.195Z,9.70
2023-04-12T06:25:06.197Z,9.50
2023-04-12T06:27:33.609Z,9.60
2023-04-12T06:30:03.877Z,9.90
2023-04-12T06:32:31.414Z,10.00
2023-04-12T06:34:58.863Z,10.10
2023-04-12T06:37:26.233Z,10.00
2023-04-12T06:39:53.799Z,9.70
2023-04-12T06:42:21.233Z,9.70
2023-04-12T06:44:48.639Z,10.20
2023-04-12T06:47:16.269Z,10.30
2023-04-12T06:49:43.624Z,10.10
2023-04-12T06:52:11.618Z,10.30
2023-04-12T06:54:39.961Z,10.10
2023-04-12T06:57:13.612Z,10.40
2023-04-12T06:59:41.393Z,11.10
2023-04-12T07:02:09.011Z,11.40
2023-04-12T07:04:36.501Z,11.30
2023-04-12T07:07:04.220Z,11.70
2023-04-12T07:09:32.732Z,12.80
2023-04-12T07:12:01.251Z,13.20
2023-04-12T07:14:29.113Z,14.20
2023-04-12T07:16:56.659Z,15.20
2023-04-12T07:19:24.370Z,16.10
2023-04-12T07:21:51.792Z,16.00
2023-04-12T07:24:19.285Z,17.10
2023-04-12T07:26:47.152Z,18.50
2023-04-12T07:29:14.597Z,17.60
2023-04-12T07:31:41.915Z,17.80
2023-04-12T07:34:09.434Z,18.80
2023-04-12T07:36:36.824Z,19.20
2023-04-12T07:39:04.395Z,20.10
2023-04-12T07:41:31.916Z,19.20
2023-04-12T07:44:01.502Z,17.00
2023-04-12T07:46:29.029Z,17.10
2023-04-12T07:48:56.575Z,18.40
2023-04-12T07:51:24.250Z,19.10
2023-04-12T07:53:52.005Z,15.50
2023-04-12T07:56:19.259Z,16.70
2023-04-12T07:58:46.674Z,14.40
2023-04-12T08:01:15.561Z,13.10
2023-04-12T08:03:43.279Z,17.20
2023-04-12T08:06:10.841Z,17.80
2023-04-12T08:08:38.144Z,16.30
2023-04-12T08:11:06.730Z,16.10
2023-04-12T08:13:34.846Z,13.30
2023-04-12T08:16:02.273Z,14.20
2023-04-12T08:18:30.075Z,13.80
2023-04-12T08:20:58.652Z,14.50
2023-04-12T08:23:26.322Z,14.70
2023-04-12T08:26:02.892Z,14.40
2023-04-12T08:28:31.393Z,13.90
2023-04-12T08:30:59.644Z,13.60
2023-04-12T08:33:27.429Z,13.40
2023-04-12T08:35:55.409Z,12.20
2023-04-12T08:38:37.201Z,12.20
2023-04-12T08:41:10.690Z,12.90
2023-04-12T08:43:38.558Z,13.40
2023-04-12T08:46:06.187Z,13.80
2023-04-12T08:48:34.362Z,13.20
2023-04-12T08:51:02.211Z,12.90
2023-04-12T08:53:29.892Z,12.40
2023-04-12T08:55:57.212Z,13.20
2023-04-12T08:58:25.188Z,12.80
2023-04-12T09:00:53.112Z,12.90
2023-04-12T09:03:20.882Z,12.40
2023-04-12T09:05:48.553Z,13.00
2023-04-12T09:08:17.699Z,12.90
2023-04-12T09:10:45.068Z,13.10
2023-04-12T09:13:12.590Z,12.90
2023-04-12T09:15:49.739Z,13.50
2023-04-12T09:18:17.581Z,14.10
2023-04-12T09:20:45.045Z,12.40
2023-04-12T09:23:19.679Z,12.40
2023-04-12T09:25:48.624Z,11.60
2023-04-12T09:28:34.096Z,13.90
2023-04-12T09:31:01.640Z,13.00
2023-04-12T09:33:36.540Z,13.70
2023-04-12T09:36:05.488Z,13.10
2023-04-12T09:38:33.864Z,13.40
2023-04-12T09:41:21.540Z,12.30
2023-04-12T09:43:52.428Z,13.40
2023-04-12T09:46:19.830Z,12.50
2023-04-12T09:48:53.408Z,12.20
2023-04-12T09:51:28.825Z,16.40
2023-04-12T09:54:00.871Z,19.40
2023-04-12T09:56:36.039Z,15.40
2023-04-12T09:59:05.363Z,16.80
2023-04-12T10:01:40.001Z,19.80
2023-04-12T10:04:08.900Z,20.70
2023-04-12T10:06:37.624Z,18.40
2023-04-12T10:09:07.143Z,20.90
2023-04-12T10:11:35.038Z,15.80
2023-04-12T10:14:03.688Z,16.00
2023-04-12T10:16:34.031Z,16.10
2023-04-12T10:19:04.648Z,16.90
2023-04-12T10:21:32.202Z,15.90
2023-04-12T10:23:59.883Z,19.50
2023-04-12T10:26:27.543Z,19.00
2023-04-12T10:29:30.447Z,15.60
2023-04-12T10:32:06.085Z,20.70
2023-04-12T10:34:33.412Z,19.20
2023-04-12T10:37:09.585Z,21.40
2023-04-12T10:39:39.914Z,20.70
2023-04-12T10:42:27.623Z,18.90
2023-04-12T10:45:20.190Z,16.80
2023-04-12T10:47:50.540Z,18.00
2023-04-12T10:50:21.738Z,19.60
2023-04-12T10:53:13.577Z,19.60
2023-04-12T10:55:43.052Z,19.10
2023-04-12T10:58:11.425Z,19.60
2023-04-12T11:00:57.208Z,22.40
2023-04-12T11:03:25.863Z,21.50
2023-04-12T11:06:20.154Z,20.80
2023-04-12T11:09:02.873Z,20.40
2023-04-12T11:11:35.662Z,18.90
2023-04-12T11:14:03.260Z,19.70
2023-04-12T11:16:31.169Z,20.40
2023-04-12T11:18:59.239Z,17.90
2023-04-12T11:21:26.958Z,19.00
2023-04-12T11:23:56.793Z,18.40
2023-04-12T11:26:25.727Z,17.70
2023-04-12T11:28:53.359Z,19.70
2023-04-12T11:31:21.761Z,19.40
2023-04-12T11:33:49.279Z,21.20
2023-04-12T11:36:17.809Z,18.40
2023-04-12T11:38:47.415Z,18.30
2023-04-12T11:41:15.086Z,20.00
2023-04-12T11:43:42.852Z,20.20
2023-04-12T11:46:10.830Z,20.60
2023-04-12T11:48:44.410Z,21.20
2023-04-12T11:51:25.461Z,20.80
2023-04-12T11:53:54.806Z,17.20
2023-04-12T11:56:22.988Z,18.00
2023-04-12T11:58:51.207Z,18.80
2023-04-12T12:01:23.449Z,15.20
2023-04-12T12:03:51.377Z,14.20
2023-04-12T12:06:20.095Z,18.30
2023-04-12T12:08:51.105Z,19.60
2023-04-12T12:11:22.433Z,18.10
2023-04-12T12:13:52.246Z,18.50
2023-04-12T12:16:25.703Z,17.70
2023-04-12T12:18:53.273Z,16.80
2023-04-12T12:21:21.877Z,17.20
2023-04-12T12:23:49.851Z,18.20
2023-04-12T12:26:23.084Z,17.80
2023-04-12T12:28:55.889Z,19.10
2023-04-12T12:31:26.555Z,17.60
2023-04-12T12:33:57.248Z,14.90
2023-04-12T12:36:39.177Z,15.00
2023-04-12T12:39:12.364Z,16.90
2023-04-12T12:41:40.838Z,17.70
2023-04-12T12:44:08.800Z,18.40
2023-04-12T12:49:06.493Z,18.30
2023-04-12T12:51:33.906Z,18.10
2023-04-12T12:54:01.555Z,17.30
2023-04-12T12:56:28.881Z,15.60
2023-04-12T12:58:56.488Z,14.90
2023-04-12T13:01:23.997Z,14.70
2023-04-12T13:03:51.705Z,15.30
2023-04-12T13:06:19.549Z,15.60
2023-04-12T13:08:47.082Z,14.20
2023-04-12T13:11:16.466Z,14.20
2023-04-12T13:13:45.134Z,14.50
2023-04-12T13:16:12.803Z,14.10
2023-04-12T13:18:40.140Z,13.70
2023-04-12T13:21:08.103Z,13.70
2023-04-12T13:23:35.948Z,13.70
2023-04-12T13:26:03.521Z,13.70
2023-04-12T13:28:30.886Z,13.80
2023-04-12T13:30:58.217Z,13.90
2023-04-12T13:33:25.542Z,14.10
2023-04-12T13:35:53.194Z,14.30
2023-04-12T13:38:20.551Z,14.30
2023-04-12T13:40:47.873Z,15.10
2023-04-12T13:43:15.525Z,15.90
2023-04-12T13:45:42.864Z,16.40
2023-04-12T13:48:10.314Z,15.70
2023-04-12T13:50:37.698Z,15.20
2023-04-12T13:53:05.014Z,14.80
2023-04-12T13:55:32.865Z,14.30
2023-04-12T13:58:00.156Z,13.80
2023-04-12T14:00:27.623Z,13.40
2023-04-12T14:02:54.931Z,13.50
2023-04-12T14:05:22.897Z,13.80
2023-04-12T14:07:51.089Z,13.70
2023-04-12T14:10:18.312Z,13.60
2023-04-12T14:12:45.622Z,13.50
2023-04-12T14:15:13.840Z,13.60
2023-04-12T14:17:41.355Z,13.40
2023-04-12T14:20:12.922Z,13.60
2023-04-12T14:22:40.317Z,13.80
2023-04-12T14:25:08.417Z,13.90
2023-04-12T14:27:36.925Z,13.60
2023-04-12T14:30:08.972Z,13.40
2023-04-12T14:32:36.462Z,13.40
2023-04-12T14:35:05.107Z,13.30
2023-04-12T14:37:33.303Z,13.10
2023-04-12T14:40:00.836Z,13.00
2023-04-12T14:42:28.283Z,12.90
2023-04-12T14:44:55.671Z,12.90
2023-04-12T14:47:23.220Z,13.00
2023-04-12T14:49:50.693Z,13.00
2023-04-12T14:52:18.853Z,13.00
2023-04-12T14:54:46.276Z,13.10
2023-04-12T14:57:13.610Z,13.00
2023-04-12T14:59:40.961Z,13.10
2023-04-12T15:02:08.338Z,13.20
2023-04-12T15:04:35.792Z,13.10
2023-04-12T15:07:03.374Z,13.40
2023-04-12T15:09:30.865Z,13.50
2023-04-12T15:12:01.548Z,13.50
2023-04-12T15:14:29.049Z,13.40
2023-04-12T15:16:56.653Z,13.50
2023-04-12T15:19:24.379Z,13.40
2023-04-12T15:21:52.691Z,13.20
2023-04-12T15:24:20.228Z,13.10
2023-04-12T15:26:48.811Z,13.30
2023-04-12T15:29:17.176Z,13.20
2023-04-12T15:31:44.998Z,13.40
2023-04-12T15:34:13.564Z,13.60
2023-04-12T15:36:41.283Z,13.40
2023-04-12T15:39:09.980Z,13.30
2023-04-12T15:41:39.283Z,13.10
2023-04-12T15:44:14.802Z,13.00
2023-04-12T15:46:42.908Z,13.00
2023-04-12T15:49:11.166Z,12.80
2023-04-12T15:51:41.221Z,12.70
2023-04-12T15:54:11.611Z,12.60
2023-04-12T15:56:40.325Z,12.50
2023-04-12T15:59:10.053Z,12.50
2023-04-12T16:01:42.948Z,12.40
2023-04-12T16:04:10.502Z,12.40
2023-04-12T16:06:38.399Z,12.30
2023-04-12T16:09:08.579Z,12.30
2023-04-12T16:11:39.065Z,12.40
2023-04-12T16:14:07.793Z,12.40
2023-04-12T16:16:35.388Z,12.40
2023-04-12T16:19:02.770Z,12.40
2023-04-12T16:21:30.588Z,12.40
2023-04-12T16:23:58.086Z,12.40
2023-04-12T16:26:27.427Z,12.40
2023-04-12T16:28:58.088Z,12.40
2023-04-12T16:31:27.705Z,12.50
2023-04-12T16:33:58.153Z,12.30
2023-04-12T16:36:27.360Z,12.30
2023-04-12T16:38:55.276Z,12.30
2023-04-12T16:41:24.447Z,12.20
2023-04-12T16:43:54.222Z,12.20
2023-04-12T16:46:21.774Z,12.20
2023-04-12T16:48:52.137Z,12.10
2023-04-12T16:51:22.013Z,12.10
2023-04-12T16:53:49.917Z,12.00
2023-04-12T16:56:20.312Z,12.00
2023-04-12T16:58:49.200Z,11.90
